GLO1855 SBNF-SBGL
Flight info
| Callsign | GLO1855 |
|---|---|
| Flight time | 1h 3m |
| Altitude | 39000 |
| Route | KUBLO UM540 ANISE DCT DORLU UZ42 VUREP |
| Aircraft | B738/M-SDE2E3FGHIRWXY/LB1 |
Departure
| Time | 2026-05-04 00:27 |
|---|---|
| Airport | Ministro Victor Konder International Airport (SBNF) |
Arrival
| Time | 2026-05-04 01:30 |
|---|---|
| Airport | Rio Galeão – Tom Jobim International Airport (SBGL) |
| Time | Latitude | Longitude | Altitude | Speed | Heading |
|---|---|---|---|---|---|
| 2026-05-04 00:12 | -26.88019 | -48.64938 | 28 ft | 0 kts | 146° |
| 2026-05-04 00:21 | -26.88011 | -48.64944 | 28 ft | 2 kts | 144° |
| 2026-05-04 00:21 | -26.88003 | -48.64950 | 28 ft | 0 kts | 146° |
| 2026-05-04 00:21 | -26.87994 | -48.64961 | 28 ft | 2 kts | 110° |
| 2026-05-04 00:22 | -26.87993 | -48.64977 | 28 ft | 2 kts | 71° |
| 2026-05-04 00:22 | -26.87996 | -48.64985 | 28 ft | 1 kts | 50° |
| 2026-05-04 00:22 | -26.88000 | -48.64990 | 28 ft | 0 kts | 55° |
| 2026-05-04 00:24 | -26.87997 | -48.64985 | 28 ft | 5 kts | 56° |
| 2026-05-04 00:24 | -26.87952 | -48.64911 | 28 ft | 12 kts | 55° |
| 2026-05-04 00:24 | -26.87897 | -48.64856 | 28 ft | 10 kts | 348° |
| 2026-05-04 00:24 | -26.87833 | -48.64874 | 28 ft | 9 kts | 12° |
| 2026-05-04 00:25 | -26.87761 | -48.64791 | 28 ft | 18 kts | 54° |
| 2026-05-04 00:25 | -26.87690 | -48.64684 | 28 ft | 16 kts | 53° |
| 2026-05-04 00:25 | -26.87628 | -48.64581 | 28 ft | 15 kts | 55° |
| 2026-05-04 00:25 | -26.87574 | -48.64486 | 28 ft | 13 kts | 56° |
| 2026-05-04 00:26 | -26.87519 | -48.64406 | 28 ft | 12 kts | 38° |
| 2026-05-04 00:26 | -26.87449 | -48.64360 | 28 ft | 10 kts | 38° |
| 2026-05-04 00:26 | -26.87457 | -48.64308 | 28 ft | 8 kts | 191° |
| 2026-05-04 00:26 | -26.87483 | -48.64338 | 28 ft | 2 kts | 235° |
| 2026-05-04 00:27 | -26.87511 | -48.64382 | 28 ft | 32 kts | 235° |
| 2026-05-04 00:27 | -26.87798 | -48.64858 | 28 ft | 112 kts | 236° |
| 2026-05-04 00:27 | -26.88356 | -48.65773 | 134 ft | 164 kts | 236° |
| 2026-05-04 00:27 | -26.89028 | -48.66852 | 756 ft | 174 kts | 234° |
| 2026-05-04 00:28 | -26.89698 | -48.67893 | 1446 ft | 168 kts | 237° |
| 2026-05-04 00:28 | -26.90344 | -48.69049 | 1706 ft | 187 kts | 238° |
| 2026-05-04 00:28 | -26.91085 | -48.70337 | 2036 ft | 205 kts | 237° |
| 2026-05-04 00:28 | -26.92028 | -48.71630 | 2387 ft | 223 kts | 216° |
| 2026-05-04 00:29 | -26.93507 | -48.72271 | 2800 ft | 235 kts | 182° |
| 2026-05-04 00:29 | -26.95162 | -48.72005 | 3210 ft | 246 kts | 156° |
| 2026-05-04 00:29 | -26.96661 | -48.71032 | 3722 ft | 257 kts | 134° |
| 2026-05-04 00:29 | -26.97671 | -48.69369 | 4305 ft | 263 kts | 112° |
| 2026-05-04 00:30 | -26.98345 | -48.67437 | 4995 ft | 270 kts | 108° |
| 2026-05-04 00:30 | -26.98972 | -48.65461 | 5697 ft | 275 kts | 104° |
| 2026-05-04 00:30 | -26.99314 | -48.63321 | 6389 ft | 279 kts | 90° |
| 2026-05-04 00:30 | -26.99042 | -48.61189 | 7082 ft | 280 kts | 67° |
| 2026-05-04 00:31 | -26.98040 | -48.59349 | 7758 ft | 282 kts | 47° |
| 2026-05-04 00:31 | -26.96638 | -48.57779 | 8423 ft | 286 kts | 41° |
| 2026-05-04 00:31 | -26.95148 | -48.56291 | 9079 ft | 292 kts | 40° |
| 2026-05-04 00:31 | -26.93611 | -48.54754 | 9732 ft | 298 kts | 40° |
| 2026-05-04 00:32 | -26.92063 | -48.53166 | 10394 ft | 303 kts | 41° |
| 2026-05-04 00:32 | -26.90502 | -48.51537 | 10819 ft | 317 kts | 41° |
| 2026-05-04 00:32 | -26.88814 | -48.49765 | 11213 ft | 332 kts | 41° |
| 2026-05-04 00:32 | -26.87048 | -48.47906 | 11575 ft | 348 kts | 41° |
| 2026-05-04 00:33 | -26.85242 | -48.46007 | 11882 ft | 365 kts | 41° |
| 2026-05-04 00:33 | -26.81405 | -48.41970 | 12945 ft | 381 kts | 41° |
| 2026-05-04 00:33 | -26.79449 | -48.39911 | 13595 ft | 386 kts | 41° |
| 2026-05-04 00:34 | -26.77475 | -48.37835 | 14234 ft | 390 kts | 41° |
| 2026-05-04 00:34 | -26.75481 | -48.35738 | 14864 ft | 395 kts | 40° |
| 2026-05-04 00:34 | -26.73430 | -48.33585 | 15536 ft | 399 kts | 40° |
| 2026-05-04 00:34 | -26.71330 | -48.31383 | 16175 ft | 404 kts | 40° |
| 2026-05-04 00:35 | -26.69222 | -48.29175 | 16788 ft | 409 kts | 40° |
| 2026-05-04 00:35 | -26.67091 | -48.26946 | 17417 ft | 413 kts | 40° |
| 2026-05-04 00:35 | -26.64927 | -48.24683 | 18032 ft | 417 kts | 40° |
| 2026-05-04 00:35 | -26.62725 | -48.22382 | 18633 ft | 422 kts | 39° |
| 2026-05-04 00:36 | -26.60521 | -48.20081 | 19228 ft | 426 kts | 40° |
| 2026-05-04 00:36 | -26.58296 | -48.17759 | 19801 ft | 431 kts | 39° |
| 2026-05-04 00:36 | -26.56020 | -48.15387 | 20373 ft | 435 kts | 39° |
| 2026-05-04 00:36 | -26.53745 | -48.13018 | 20892 ft | 441 kts | 39° |
| 2026-05-04 00:37 | -26.51419 | -48.10597 | 21418 ft | 446 kts | 39° |
| 2026-05-04 00:37 | -26.49070 | -48.08153 | 21952 ft | 450 kts | 39° |
| 2026-05-04 00:37 | -26.46729 | -48.05719 | 22458 ft | 454 kts | 39° |
| 2026-05-04 00:37 | -26.44348 | -48.03242 | 22980 ft | 458 kts | 39° |
| 2026-05-04 00:38 | -26.41959 | -48.00759 | 23440 ft | 463 kts | 39° |
| 2026-05-04 00:38 | -26.39541 | -47.98245 | 23908 ft | 467 kts | 39° |
| 2026-05-04 00:38 | -26.37074 | -47.95683 | 24350 ft | 471 kts | 38° |
| 2026-05-04 00:38 | -26.34634 | -47.93164 | 24833 ft | 474 kts | 38° |
| 2026-05-04 00:39 | -26.32043 | -47.90683 | 25241 ft | 476 kts | 33° |
| 2026-05-04 00:39 | -26.29338 | -47.88376 | 25668 ft | 478 kts | 31° |
| 2026-05-04 00:39 | -26.26599 | -47.86186 | 26057 ft | 482 kts | 29° |
| 2026-05-04 00:39 | -26.23725 | -47.83954 | 26472 ft | 485 kts | 29° |
| 2026-05-04 00:40 | -26.20877 | -47.81757 | 26902 ft | 488 kts | 28° |
| 2026-05-04 00:40 | -26.17997 | -47.79527 | 27254 ft | 494 kts | 28° |
| 2026-05-04 00:40 | -26.15084 | -47.77256 | 27712 ft | 496 kts | 29° |
| 2026-05-04 00:40 | -26.12190 | -47.74989 | 28026 ft | 501 kts | 29° |
| 2026-05-04 00:41 | -26.09237 | -47.72664 | 28415 ft | 505 kts | 29° |
| 2026-05-04 00:41 | -26.06285 | -47.70330 | 28886 ft | 505 kts | 28° |
| 2026-05-04 00:41 | -26.03373 | -47.68021 | 29435 ft | 504 kts | 28° |
| 2026-05-04 00:41 | -26.00417 | -47.65672 | 30014 ft | 502 kts | 28° |
| 2026-05-04 00:42 | -25.97537 | -47.63383 | 30497 ft | 502 kts | 28° |
| 2026-05-04 00:42 | -25.94648 | -47.61089 | 30945 ft | 502 kts | 28° |
| 2026-05-04 00:42 | -25.91717 | -47.58766 | 31379 ft | 502 kts | 28° |
| 2026-05-04 00:42 | -25.88846 | -47.56490 | 31864 ft | 500 kts | 28° |
| 2026-05-04 00:43 | -25.85962 | -47.54205 | 32283 ft | 500 kts | 28° |
| 2026-05-04 00:43 | -25.83024 | -47.51878 | 32736 ft | 499 kts | 28° |
| 2026-05-04 00:43 | -25.80154 | -47.49608 | 33118 ft | 499 kts | 28° |
| 2026-05-04 00:43 | -25.77228 | -47.47297 | 33491 ft | 500 kts | 28° |
| 2026-05-04 00:44 | -25.74365 | -47.45038 | 33895 ft | 500 kts | 28° |
| 2026-05-04 00:44 | -25.71456 | -47.42741 | 34440 ft | 496 kts | 28° |
| 2026-05-04 00:44 | -25.68576 | -47.40468 | 34848 ft | 496 kts | 28° |
| 2026-05-04 00:44 | -25.65698 | -47.38200 | 35220 ft | 496 kts | 28° |
| 2026-05-04 00:45 | -25.62847 | -47.35951 | 35699 ft | 493 kts | 27° |
| 2026-05-04 00:45 | -25.60010 | -47.33715 | 36075 ft | 492 kts | 27° |
| 2026-05-04 00:45 | -25.57130 | -47.31448 | 36391 ft | 491 kts | 27° |
| 2026-05-04 00:45 | -25.54257 | -47.29190 | 36650 ft | 492 kts | 27° |
| 2026-05-04 00:46 | -25.51435 | -47.26978 | 36870 ft | 494 kts | 27° |
| 2026-05-04 00:46 | -25.48552 | -47.24719 | 37206 ft | 492 kts | 27° |
| 2026-05-04 00:46 | -25.45690 | -47.22474 | 37497 ft | 492 kts | 26° |
| 2026-05-04 00:46 | -25.42902 | -47.20289 | 37744 ft | 492 kts | 26° |
| 2026-05-04 00:47 | -25.40083 | -47.18080 | 38009 ft | 492 kts | 26° |
| 2026-05-04 00:47 | -25.37302 | -47.15902 | 38222 ft | 492 kts | 26° |
| 2026-05-04 00:47 | -25.34487 | -47.13699 | 38447 ft | 492 kts | 26° |
| 2026-05-04 00:47 | -25.31677 | -47.11498 | 38729 ft | 491 kts | 26° |
| 2026-05-04 00:48 | -25.28889 | -47.09315 | 38995 ft | 490 kts | 26° |
| 2026-05-04 00:48 | -25.26104 | -47.07136 | 39198 ft | 490 kts | 26° |
| 2026-05-04 00:48 | -25.23295 | -47.04942 | 39201 ft | 492 kts | 26° |
| 2026-05-04 00:49 | -25.17723 | -47.00593 | 39201 ft | 490 kts | 26° |
| 2026-05-04 00:49 | -25.12113 | -46.96286 | 39197 ft | 486 kts | 24° |
| 2026-05-04 00:50 | -25.06369 | -46.92421 | 39197 ft | 482 kts | 21° |
| 2026-05-04 00:50 | -25.00529 | -46.88722 | 39199 ft | 483 kts | 20° |
| 2026-05-04 00:51 | -24.94704 | -46.85009 | 39202 ft | 482 kts | 21° |
| 2026-05-04 00:51 | -24.88884 | -46.81252 | 39209 ft | 481 kts | 21° |
| 2026-05-04 00:52 | -24.83106 | -46.77499 | 39215 ft | 483 kts | 21° |
| 2026-05-04 00:52 | -24.77317 | -46.73718 | 39214 ft | 483 kts | 21° |
| 2026-05-04 00:53 | -24.71527 | -46.69938 | 39214 ft | 480 kts | 21° |
| 2026-05-04 00:53 | -24.65752 | -46.66172 | 39215 ft | 481 kts | 21° |
| 2026-05-04 00:54 | -24.60082 | -46.62128 | 39213 ft | 490 kts | 28° |
| 2026-05-04 00:54 | -24.54878 | -46.57236 | 39213 ft | 498 kts | 35° |
| 2026-05-04 00:55 | -24.49888 | -46.51937 | 39212 ft | 497 kts | 37° |
| 2026-05-04 00:55 | -24.44967 | -46.46613 | 39213 ft | 498 kts | 37° |
| 2026-05-04 00:56 | -24.40015 | -46.41304 | 39211 ft | 498 kts | 36° |
| 2026-05-04 00:56 | -24.34999 | -46.35986 | 39211 ft | 500 kts | 36° |
| 2026-05-04 00:57 | -24.30022 | -46.30732 | 39207 ft | 495 kts | 36° |
| 2026-05-04 00:57 | -24.25025 | -46.25479 | 39204 ft | 495 kts | 35° |
| 2026-05-04 00:58 | -24.20037 | -46.20248 | 39207 ft | 495 kts | 35° |
| 2026-05-04 00:58 | -24.15063 | -46.15040 | 39203 ft | 496 kts | 35° |
| 2026-05-04 00:59 | -24.10072 | -46.09819 | 39198 ft | 497 kts | 35° |
| 2026-05-04 00:59 | -24.05065 | -46.04579 | 39193 ft | 495 kts | 35° |
| 2026-05-04 01:00 | -24.00089 | -45.99381 | 39196 ft | 494 kts | 35° |
| 2026-05-04 01:00 | -23.95088 | -45.94162 | 39197 ft | 495 kts | 36° |
| 2026-05-04 01:01 | -23.90089 | -45.88950 | 39197 ft | 494 kts | 35° |
| 2026-05-04 01:01 | -23.85112 | -45.83771 | 39200 ft | 494 kts | 36° |
| 2026-05-04 01:02 | -23.80166 | -45.78532 | 39202 ft | 497 kts | 38° |
| 2026-05-04 01:02 | -23.75764 | -45.72577 | 39210 ft | 513 kts | 57° |
| 2026-05-04 01:03 | -23.73833 | -45.67674 | 39214 ft | 517 kts | 62° |
| 2026-05-04 01:03 | -23.73763 | -45.67493 | 39213 ft | 517 kts | 62° |
| 2026-05-04 01:03 | -23.71951 | -45.64123 | 39218 ft | 504 kts | 44° |
| 2026-05-04 01:04 | -23.69528 | -45.61423 | 39226 ft | 495 kts | 33° |
| 2026-05-04 01:04 | -23.64247 | -45.56707 | 39228 ft | 488 kts | 29° |
| 2026-05-04 01:04 | -23.61563 | -45.54441 | 38999 ft | 485 kts | 29° |
| 2026-05-04 01:05 | -23.59031 | -45.52314 | 38607 ft | 480 kts | 29° |
| 2026-05-04 01:05 | -23.56394 | -45.50095 | 38105 ft | 477 kts | 29° |
| 2026-05-04 01:05 | -23.53768 | -45.47877 | 37546 ft | 476 kts | 29° |
| 2026-05-04 01:05 | -23.51164 | -45.45670 | 36982 ft | 474 kts | 30° |
| 2026-05-04 01:06 | -23.49647 | -45.44378 | 36741 ft | 471 kts | 30° |
| 2026-05-04 01:06 | -23.47530 | -45.42571 | 36382 ft | 467 kts | 30° |
| 2026-05-04 01:06 | -23.44971 | -45.40381 | 35918 ft | 463 kts | 30° |
| 2026-05-04 01:06 | -23.42448 | -45.38221 | 35430 ft | 460 kts | 30° |
| 2026-05-04 01:07 | -23.39929 | -45.36062 | 34947 ft | 457 kts | 31° |
| 2026-05-04 01:07 | -23.37579 | -45.33822 | 34476 ft | 460 kts | 37° |
| 2026-05-04 01:07 | -23.35490 | -45.31089 | 33983 ft | 467 kts | 51° |
| 2026-05-04 01:07 | -23.34023 | -45.27914 | 33518 ft | 472 kts | 66° |
| 2026-05-04 01:08 | -23.33070 | -45.24519 | 33048 ft | 471 kts | 71° |
| 2026-05-04 01:08 | -23.32276 | -45.21077 | 32582 ft | 469 kts | 73° |
| 2026-05-04 01:08 | -23.31551 | -45.17672 | 32111 ft | 466 kts | 74° |
| 2026-05-04 01:08 | -23.30837 | -45.14217 | 31626 ft | 464 kts | 74° |
| 2026-05-04 01:09 | -23.30142 | -45.10838 | 31157 ft | 461 kts | 74° |
| 2026-05-04 01:09 | -23.29440 | -45.07452 | 30678 ft | 459 kts | 74° |
| 2026-05-04 01:09 | -23.28735 | -45.04086 | 30195 ft | 456 kts | 74° |
| 2026-05-04 01:09 | -23.28016 | -45.00687 | 29725 ft | 454 kts | 74° |
| 2026-05-04 01:10 | -23.27312 | -44.97375 | 29252 ft | 452 kts | 74° |
| 2026-05-04 01:10 | -23.26599 | -44.94033 | 28784 ft | 450 kts | 74° |
| 2026-05-04 01:10 | -23.25882 | -44.90700 | 28311 ft | 448 kts | 74° |
| 2026-05-04 01:10 | -23.25169 | -44.87406 | 27828 ft | 446 kts | 74° |
| 2026-05-04 01:11 | -23.24446 | -44.84078 | 27349 ft | 444 kts | 75° |
| 2026-05-04 01:11 | -23.23740 | -44.80838 | 26877 ft | 442 kts | 75° |
| 2026-05-04 01:11 | -23.23024 | -44.77557 | 26402 ft | 440 kts | 75° |
| 2026-05-04 01:11 | -23.22323 | -44.74345 | 25930 ft | 439 kts | 75° |
| 2026-05-04 01:12 | -23.21615 | -44.71105 | 25453 ft | 437 kts | 75° |
| 2026-05-04 01:12 | -23.20908 | -44.67874 | 24978 ft | 435 kts | 76° |
| 2026-05-04 01:12 | -23.20203 | -44.64661 | 24499 ft | 433 kts | 76° |
| 2026-05-04 01:12 | -23.19508 | -44.61486 | 24027 ft | 431 kts | 77° |
| 2026-05-04 01:13 | -23.18803 | -44.58330 | 23569 ft | 428 kts | 76° |
| 2026-05-04 01:13 | -23.17974 | -44.55195 | 23095 ft | 426 kts | 71° |
| 2026-05-04 01:13 | -23.16897 | -44.52150 | 22609 ft | 424 kts | 66° |
| 2026-05-04 01:13 | -23.15816 | -44.49546 | 22189 ft | 421 kts | 64° |
| 2026-05-04 01:14 | -23.14517 | -44.46626 | 21716 ft | 418 kts | 63° |
| 2026-05-04 01:14 | -23.13223 | -44.43794 | 21257 ft | 415 kts | 63° |
| 2026-05-04 01:14 | -23.12019 | -44.41163 | 20825 ft | 412 kts | 63° |
| 2026-05-04 01:14 | -23.10744 | -44.38358 | 20361 ft | 410 kts | 63° |
| 2026-05-04 01:15 | -23.09489 | -44.35578 | 19901 ft | 407 kts | 63° |
| 2026-05-04 01:15 | -23.08274 | -44.32781 | 19391 ft | 405 kts | 64° |
| 2026-05-04 01:15 | -23.07208 | -44.30165 | 18944 ft | 402 kts | 65° |
| 2026-05-04 01:15 | -23.06117 | -44.27387 | 18490 ft | 398 kts | 66° |
| 2026-05-04 01:16 | -23.05044 | -44.24622 | 18048 ft | 394 kts | 66° |
| 2026-05-04 01:16 | -23.03964 | -44.21849 | 17603 ft | 390 kts | 65° |
| 2026-05-04 01:16 | -23.02897 | -44.19137 | 17168 ft | 386 kts | 65° |
| 2026-05-04 01:16 | -23.01838 | -44.16467 | 16735 ft | 382 kts | 65° |
| 2026-05-04 01:17 | -23.00789 | -44.13840 | 16296 ft | 379 kts | 65° |
| 2026-05-04 01:17 | -22.99740 | -44.11221 | 15868 ft | 375 kts | 65° |
| 2026-05-04 01:17 | -22.98700 | -44.08635 | 15436 ft | 371 kts | 65° |
| 2026-05-04 01:17 | -22.97680 | -44.06096 | 15031 ft | 366 kts | 65° |
| 2026-05-04 01:18 | -22.96660 | -44.03562 | 14602 ft | 363 kts | 65° |
| 2026-05-04 01:18 | -22.95651 | -44.01056 | 14178 ft | 359 kts | 66° |
| 2026-05-04 01:18 | -22.94656 | -43.98586 | 13759 ft | 354 kts | 66° |
| 2026-05-04 01:18 | -22.93678 | -43.96158 | 13346 ft | 350 kts | 66° |
| 2026-05-04 01:19 | -22.92704 | -43.93740 | 12937 ft | 345 kts | 66° |
| 2026-05-04 01:19 | -22.91753 | -43.91381 | 12542 ft | 341 kts | 65° |
| 2026-05-04 01:19 | -22.90805 | -43.89037 | 12149 ft | 336 kts | 65° |
| 2026-05-04 01:19 | -22.89862 | -43.86716 | 11759 ft | 332 kts | 65° |
| 2026-05-04 01:20 | -22.88941 | -43.84452 | 11369 ft | 328 kts | 65° |
| 2026-05-04 01:20 | -22.88012 | -43.82164 | 10985 ft | 324 kts | 65° |
| 2026-05-04 01:20 | -22.87118 | -43.79961 | 10596 ft | 321 kts | 65° |
| 2026-05-04 01:20 | -22.86224 | -43.77756 | 10229 ft | 317 kts | 65° |
| 2026-05-04 01:21 | -22.85352 | -43.75600 | 9996 ft | 308 kts | 65° |
| 2026-05-04 01:21 | -22.84496 | -43.73489 | 9601 ft | 306 kts | 65° |
| 2026-05-04 01:21 | -22.83643 | -43.71388 | 9248 ft | 303 kts | 65° |
| 2026-05-04 01:21 | -22.82792 | -43.69291 | 8892 ft | 298 kts | 65° |
| 2026-05-04 01:22 | -22.81983 | -43.67297 | 8524 ft | 285 kts | 65° |
| 2026-05-04 01:22 | -22.81189 | -43.65339 | 8050 ft | 276 kts | 65° |
| 2026-05-04 01:22 | -22.80442 | -43.63500 | 7699 ft | 263 kts | 65° |
| 2026-05-04 01:22 | -22.79714 | -43.61710 | 7398 ft | 250 kts | 65° |
| 2026-05-04 01:23 | -22.79029 | -43.60028 | 7105 ft | 240 kts | 66° |
| 2026-05-04 01:23 | -22.78371 | -43.58410 | 6831 ft | 231 kts | 66° |
| 2026-05-04 01:23 | -22.77731 | -43.56840 | 6556 ft | 225 kts | 67° |
| 2026-05-04 01:23 | -22.77116 | -43.55322 | 6405 ft | 214 kts | 68° |
| 2026-05-04 01:24 | -22.76568 | -43.53938 | 6399 ft | 210 kts | 68° |
| 2026-05-04 01:24 | -22.75983 | -43.52446 | 5969 ft | 221 kts | 68° |
| 2026-05-04 01:24 | -22.75371 | -43.50890 | 5398 ft | 230 kts | 68° |
| 2026-05-04 01:24 | -22.74739 | -43.49294 | 4969 ft | 228 kts | 68° |
| 2026-05-04 01:25 | -22.74239 | -43.48034 | 4751 ft | 218 kts | 68° |
| 2026-05-04 01:25 | -22.73667 | -43.46594 | 4441 ft | 210 kts | 68° |
| 2026-05-04 01:25 | -22.73104 | -43.45176 | 4114 ft | 204 kts | 68° |
| 2026-05-04 01:25 | -22.72553 | -43.43787 | 3834 ft | 198 kts | 69° |
| 2026-05-04 01:26 | -22.72033 | -43.42433 | 3556 ft | 193 kts | 73° |
| 2026-05-04 01:26 | -22.71843 | -43.41020 | 3250 ft | 187 kts | 101° |
| 2026-05-04 01:26 | -22.72360 | -43.39772 | 2987 ft | 180 kts | 124° |
| 2026-05-04 01:26 | -22.73064 | -43.38665 | 2741 ft | 176 kts | 124° |
| 2026-05-04 01:27 | -22.73745 | -43.37604 | 2524 ft | 166 kts | 126° |
| 2026-05-04 01:27 | -22.74413 | -43.36601 | 2276 ft | 163 kts | 126° |
| 2026-05-04 01:27 | -22.75072 | -43.35615 | 2081 ft | 158 kts | 126° |
| 2026-05-04 01:27 | -22.75695 | -43.34679 | 1839 ft | 149 kts | 126° |
| 2026-05-04 01:28 | -22.76294 | -43.33775 | 1680 ft | 147 kts | 126° |
| 2026-05-04 01:28 | -22.76898 | -43.32869 | 1457 ft | 149 kts | 125° |
| 2026-05-04 01:28 | -22.77502 | -43.31965 | 1268 ft | 150 kts | 125° |
| 2026-05-04 01:28 | -22.78117 | -43.31041 | 1067 ft | 149 kts | 125° |
| 2026-05-04 01:29 | -22.78728 | -43.30125 | 868 ft | 149 kts | 125° |
| 2026-05-04 01:29 | -22.79339 | -43.29210 | 671 ft | 150 kts | 125° |
| 2026-05-04 01:29 | -22.79955 | -43.28285 | 471 ft | 151 kts | 125° |
| 2026-05-04 01:29 | -22.80573 | -43.27365 | 286 ft | 150 kts | 126° |
| 2026-05-04 01:30 | -22.81181 | -43.26474 | 95 ft | 145 kts | 124° |
| 2026-05-04 01:30 | -22.81732 | -43.25636 | 22 ft | 112 kts | 124° |
| 2026-05-04 01:30 | -22.82055 | -43.25146 | 21 ft | 52 kts | 126° |
| 2026-05-04 01:30 | -22.82235 | -43.24874 | 24 ft | 40 kts | 126° |
| 2026-05-04 01:31 | -22.82344 | -43.24677 | 27 ft | 22 kts | 104° |
| 2026-05-04 01:31 | -22.82368 | -43.24538 | 30 ft | 15 kts | 96° |
| 2026-05-04 01:31 | -22.82365 | -43.24456 | 30 ft | 9 kts | 60° |
| 2026-05-04 01:31 | -22.82319 | -43.24475 | 30 ft | 8 kts | 308° |
| 2026-05-04 01:32 | -22.82281 | -43.24529 | 29 ft | 10 kts | 306° |
| 2026-05-04 01:32 | -22.82234 | -43.24600 | 28 ft | 11 kts | 305° |
| 2026-05-04 01:32 | -22.82185 | -43.24675 | 27 ft | 14 kts | 305° |
| 2026-05-04 01:32 | -22.82117 | -43.24777 | 25 ft | 17 kts | 306° |
| 2026-05-04 01:33 | -22.82045 | -43.24880 | 25 ft | 16 kts | 307° |
| 2026-05-04 01:33 | -22.81981 | -43.24980 | 24 ft | 15 kts | 303° |
| 2026-05-04 01:33 | -22.81921 | -43.25071 | 24 ft | 14 kts | 306° |
| 2026-05-04 01:33 | -22.81862 | -43.25161 | 23 ft | 15 kts | 306° |
| 2026-05-04 01:34 | -22.81797 | -43.25243 | 25 ft | 13 kts | 336° |
| 2026-05-04 01:34 | -22.81724 | -43.25221 | 27 ft | 9 kts | 36° |
| 2026-05-04 01:34 | -22.81686 | -43.25191 | 29 ft | 5 kts | 36° |
| 2026-05-04 01:34 | -22.81655 | -43.25166 | 31 ft | 11 kts | 36° |
| 2026-05-04 01:35 | -22.81589 | -43.25113 | 33 ft | 11 kts | 37° |
| 2026-05-04 01:35 | -22.81531 | -43.25068 | 35 ft | 11 kts | 34° |
| 2026-05-04 01:35 | -22.81492 | -43.25010 | 37 ft | 8 kts | 97° |
| 2026-05-04 01:35 | -22.81509 | -43.24952 | 38 ft | 10 kts | 118° |
| 2026-05-04 01:36 | -22.81542 | -43.24892 | 38 ft | 8 kts | 128° |
| 2026-05-04 01:36 | -22.81597 | -43.24820 | 38 ft | 15 kts | 125° |
| 2026-05-04 01:36 | -22.81655 | -43.24730 | 37 ft | 12 kts | 124° |
| 2026-05-04 01:36 | -22.81704 | -43.24652 | 36 ft | 12 kts | 125° |
| 2026-05-04 01:37 | -22.81750 | -43.24582 | 37 ft | 10 kts | 123° |
| 2026-05-04 01:37 | -22.81756 | -43.24511 | 37 ft | 9 kts | 60° |
| 2026-05-04 01:37 | -22.81702 | -43.24493 | 37 ft | 8 kts | 346° |
| 2026-05-04 01:37 | -22.81651 | -43.24510 | 37 ft | 6 kts | 342° |
| 2026-05-04 01:38 | -22.81633 | -43.24516 | 37 ft | 0 kts | 342° |